createdAt,value
2024-03-14T04:48:52.578Z,99.90
2024-03-14T04:51:20.254Z,99.90
2024-03-14T04:53:47.520Z,99.90
2024-03-14T04:56:14.501Z,99.90
2024-03-14T04:58:41.079Z,99.90
2024-03-14T05:01:08.326Z,99.90
2024-03-14T05:03:35.109Z,99.90
2024-03-14T05:06:02.000Z,99.90
2024-03-14T05:08:28.766Z,99.90
2024-03-14T05:10:55.676Z,99.90
2024-03-14T05:13:24.247Z,99.90
2024-03-14T05:15:52.354Z,99.90
2024-03-14T05:18:19.193Z,99.90
2024-03-14T05:20:47.034Z,99.90
2024-03-14T05:23:13.757Z,99.90
2024-03-14T05:25:40.392Z,99.90
2024-03-14T05:28:07.825Z,99.90
2024-03-14T05:30:34.852Z,99.90
2024-03-14T05:33:01.768Z,99.90
2024-03-14T05:35:29.302Z,99.90
2024-03-14T05:37:56.066Z,99.90
2024-03-14T05:40:22.877Z,99.90
2024-03-14T05:42:49.645Z,99.90
2024-03-14T05:45:17.553Z,99.90
2024-03-14T05:47:44.289Z,99.90
2024-03-14T05:50:12.262Z,99.90
2024-03-14T05:52:41.136Z,99.90
2024-03-14T05:55:09.592Z,99.90
2024-03-14T05:57:37.819Z,99.90
2024-03-14T06:00:05.176Z,99.90
2024-03-14T06:02:32.014Z,99.90
2024-03-14T06:04:58.650Z,99.90
2024-03-14T06:07:25.434Z,99.90
2024-03-14T06:09:52.438Z,99.90
2024-03-14T06:12:19.458Z,99.90
2024-03-14T06:14:47.081Z,99.90
2024-03-14T06:17:14.701Z,99.90
2024-03-14T06:19:41.528Z,99.90
2024-03-14T06:22:10.190Z,99.90
2024-03-14T06:24:37.703Z,99.90
2024-03-14T06:27:04.807Z,99.90
2024-03-14T06:29:32.560Z,99.90
2024-03-14T06:32:00.103Z,99.90
2024-03-14T06:34:26.969Z,99.90
2024-03-14T06:36:53.765Z,99.90
2024-03-14T06:39:21.857Z,99.90
2024-03-14T06:41:49.244Z,99.90
2024-03-14T06:44:16.063Z,99.90
2024-03-14T06:46:43.794Z,99.90
2024-03-14T06:49:13.515Z,99.90
2024-03-14T06:51:41.850Z,99.90
2024-03-14T06:54:08.887Z,99.90
2024-03-14T06:56:38.606Z,99.90
2024-03-14T06:59:09.196Z,99.90
2024-03-14T07:01:36.034Z,99.90
2024-03-14T07:04:02.704Z,99.90
2024-03-14T07:06:29.829Z,99.90
2024-03-14T07:09:00.518Z,99.90
2024-03-14T07:11:27.803Z,99.90
2024-03-14T07:13:57.483Z,99.90
2024-03-14T07:16:24.469Z,99.90
2024-03-14T07:18:51.410Z,99.90
2024-03-14T07:21:18.286Z,99.90
2024-03-14T07:23:49.013Z,99.90
2024-03-14T07:26:22.080Z,99.90
2024-03-14T07:28:49.191Z,99.90
2024-03-14T07:31:15.978Z,99.90
2024-03-14T07:33:45.111Z,99.90
2024-03-14T07:36:16.483Z,99.90
2024-03-14T07:38:45.316Z,99.90
2024-03-14T07:41:15.346Z,99.90
2024-03-14T07:43:42.078Z,99.90
2024-03-14T07:46:09.285Z,99.90
2024-03-14T07:48:39.077Z,99.90
2024-03-14T07:51:08.674Z,99.90
2024-03-14T07:53:35.527Z,99.90
2024-03-14T07:56:02.177Z,99.90
2024-03-14T07:58:29.555Z,99.90
2024-03-14T08:00:57.151Z,99.90
2024-03-14T08:03:23.943Z,99.90
2024-03-14T08:05:51.746Z,99.90
2024-03-14T08:08:25.791Z,99.90
2024-03-14T08:13:24.940Z,99.90
2024-03-14T08:15:55.269Z,99.90
2024-03-14T08:18:23.726Z,99.90
2024-03-14T08:20:51.636Z,99.90
2024-03-14T08:23:18.342Z,99.90
2024-03-14T08:25:47.420Z,99.90
2024-03-14T08:28:14.576Z,99.90
2024-03-14T08:30:43.681Z,99.90
2024-03-14T08:33:10.531Z,99.90
2024-03-14T08:35:41.933Z,99.90
2024-03-14T08:38:08.961Z,99.90
2024-03-14T08:40:36.690Z,99.90
2024-03-14T08:43:03.550Z,99.90
2024-03-14T08:45:30.347Z,99.90
2024-03-14T08:47:57.321Z,99.90
2024-03-14T08:50:26.732Z,99.90
2024-03-14T08:52:56.452Z,99.90
2024-03-14T08:55:30.797Z,99.90
2024-03-14T08:57:57.724Z,99.90
2024-03-14T09:00:24.545Z,99.90
2024-03-14T09:02:51.751Z,99.90
2024-03-14T09:05:18.526Z,99.90
2024-03-14T09:07:47.010Z,99.90
2024-03-14T09:10:29.499Z,99.90
2024-03-14T09:12:56.589Z,99.90
2024-03-14T09:15:25.593Z,99.90
2024-03-14T09:17:53.249Z,99.90
2024-03-14T09:20:22.789Z,99.90
2024-03-14T09:22:55.713Z,99.90
2024-03-14T09:25:23.405Z,99.90
2024-03-14T09:27:50.518Z,99.90
2024-03-14T09:30:18.704Z,99.90
2024-03-14T09:32:47.090Z,99.90
2024-03-14T09:35:34.257Z,99.90
2024-03-14T09:38:01.129Z,99.90
2024-03-14T09:40:28.869Z,99.90
2024-03-14T09:42:59.740Z,99.90
2024-03-14T09:45:27.779Z,99.90
2024-03-14T09:47:58.360Z,99.90
2024-03-14T09:50:28.009Z,99.90
2024-03-14T09:52:56.674Z,99.90
2024-03-14T09:55:25.113Z,99.90
2024-03-14T09:57:54.517Z,99.90
2024-03-14T10:00:22.725Z,99.90
2024-03-14T10:02:50.644Z,99.90
2024-03-14T10:05:20.453Z,99.90
2024-03-14T10:07:49.018Z,99.90
2024-03-14T10:10:16.878Z,99.90
2024-03-14T10:12:55.298Z,99.90
2024-03-14T10:15:23.593Z,99.90
2024-03-14T10:17:52.921Z,99.90
2024-03-14T10:20:21.286Z,99.90
2024-03-14T10:22:50.065Z,99.90
2024-03-14T10:25:18.752Z,99.90
2024-03-14T10:28:05.350Z,99.90
2024-03-14T10:30:38.924Z,99.90
2024-03-14T10:33:09.460Z,99.90
2024-03-14T10:35:38.075Z,99.90
2024-03-14T10:38:09.481Z,99.90
2024-03-14T10:40:39.078Z,99.90
2024-03-14T10:43:09.576Z,99.90
2024-03-14T10:45:36.594Z,99.90
2024-03-14T10:48:06.819Z,99.90
2024-03-14T10:50:35.398Z,99.90
2024-03-14T10:53:03.166Z,99.90
2024-03-14T10:55:33.772Z,99.90
2024-03-14T10:58:02.509Z,99.90
2024-03-14T11:00:30.943Z,99.90
2024-03-14T11:02:58.604Z,99.90
2024-03-14T11:05:25.332Z,99.90
2024-03-14T11:07:53.892Z,99.90
2024-03-14T11:10:29.414Z,99.90
2024-03-14T11:13:03.025Z,99.90
2024-03-14T11:15:30.147Z,99.90
2024-03-14T11:18:01.101Z,99.00
2024-03-14T11:20:34.212Z,97.70
2024-03-14T11:23:04.978Z,96.60
2024-03-14T11:25:33.565Z,93.60
2024-03-14T11:28:02.078Z,94.10
2024-03-14T11:30:28.780Z,91.70
2024-03-14T11:32:58.700Z,86.60
2024-03-14T11:35:30.084Z,86.30
2024-03-14T11:37:57.029Z,90.10
2024-03-14T11:40:23.697Z,91.30
2024-03-14T11:42:52.840Z,90.70
2024-03-14T11:45:19.603Z,89.80
2024-03-14T11:47:48.512Z,88.30
2024-03-14T11:50:15.306Z,87.10
2024-03-14T11:52:43.070Z,83.60
2024-03-14T11:55:12.627Z,84.70
2024-03-14T11:57:39.836Z,82.60
2024-03-14T12:00:10.534Z,81.40
2024-03-14T12:02:38.426Z,81.20
2024-03-14T12:05:06.827Z,84.00
2024-03-14T12:07:34.841Z,83.50
2024-03-14T12:10:02.595Z,88.30
2024-03-14T12:12:34.342Z,90.60
2024-03-14T12:15:01.175Z,92.40
2024-03-14T12:17:30.242Z,93.50
2024-03-14T12:19:57.678Z,94.60
2024-03-14T12:22:24.320Z,95.70
2024-03-14T12:24:55.638Z,96.20
2024-03-14T12:27:22.799Z,96.50
2024-03-14T12:29:49.785Z,97.20
2024-03-14T12:32:17.568Z,96.40
2024-03-14T12:34:44.573Z,95.90
2024-03-14T12:37:13.781Z,96.10
2024-03-14T12:39:50.225Z,96.00
2024-03-14T12:42:17.149Z,97.00
2024-03-14T12:44:44.220Z,98.10
2024-03-14T12:47:11.179Z,98.10
2024-03-14T12:49:37.933Z,97.00
2024-03-14T12:52:10.575Z,98.30
2024-03-14T12:54:37.508Z,99.20
2024-03-14T12:57:06.825Z,99.90
2024-03-14T12:59:37.404Z,99.20
2024-03-14T13:02:07.313Z,99.90
2024-03-14T13:04:41.709Z,99.90
2024-03-14T13:07:12.604Z,99.90
2024-03-14T13:09:39.308Z,99.90
2024-03-14T13:12:12.238Z,99.90
2024-03-14T13:14:39.253Z,99.90
2024-03-14T13:17:07.990Z,99.90
2024-03-14T13:19:36.941Z,99.90
2024-03-14T13:22:05.240Z,99.90
2024-03-14T13:24:32.028Z,99.90
2024-03-14T13:26:59.578Z,99.90
2024-03-14T13:29:26.788Z,99.90
2024-03-14T13:31:54.519Z,99.90
2024-03-14T13:34:22.269Z,99.90
2024-03-14T13:36:53.628Z,99.90
2024-03-14T13:39:20.430Z,99.90
2024-03-14T13:41:48.058Z,99.90
2024-03-14T13:44:14.900Z,99.90
2024-03-14T13:46:45.789Z,99.90
2024-03-14T13:49:12.864Z,99.70
2024-03-14T13:51:40.516Z,99.10
2024-03-14T13:54:07.778Z,99.90
2024-03-14T13:56:35.048Z,99.90
2024-03-14T13:59:04.473Z,99.90
2024-03-14T14:01:34.851Z,99.90
2024-03-14T14:04:04.199Z,99.90
2024-03-14T14:06:31.102Z,99.90
2024-03-14T14:08:58.012Z,99.90
2024-03-14T14:11:26.710Z,99.90
2024-03-14T14:13:53.575Z,99.90
2024-03-14T14:16:20.390Z,99.90
2024-03-14T14:18:47.737Z,99.90
2024-03-14T14:21:15.726Z,99.00
2024-03-14T14:23:42.879Z,99.30
2024-03-14T14:26:09.723Z,98.70
2024-03-14T14:28:37.282Z,99.10
2024-03-14T14:31:04.130Z,99.20
2024-03-14T14:33:33.615Z,99.00
2024-03-14T14:36:02.356Z,99.60
2024-03-14T14:38:29.321Z,98.30
2024-03-14T14:40:55.955Z,97.60
2024-03-14T14:43:22.634Z,96.80
2024-03-14T14:45:49.438Z,96.30
2024-03-14T14:48:16.845Z,96.30
2024-03-14T14:50:43.657Z,96.40
2024-03-14T14:53:12.065Z,97.00
2024-03-14T14:55:41.749Z,97.40
2024-03-14T14:58:08.425Z,96.60
2024-03-14T15:00:36.117Z,96.30
2024-03-14T15:03:03.993Z,96.30
2024-03-14T15:05:30.954Z,96.50
2024-03-14T15:07:57.592Z,97.30
2024-03-14T15:10:24.186Z,96.80
2024-03-14T15:12:57.624Z,96.90
2024-03-14T15:15:28.449Z,97.10
2024-03-14T15:17:55.652Z,98.30
2024-03-14T15:20:23.352Z,99.00
2024-03-14T15:22:52.170Z,98.30
2024-03-14T15:25:20.070Z,97.90
2024-03-14T15:27:46.858Z,97.60
2024-03-14T15:30:13.715Z,97.90
2024-03-14T15:32:43.486Z,97.80
2024-03-14T15:35:12.462Z,98.50
2024-03-14T15:37:39.830Z,98.80
2024-03-14T15:40:11.138Z,99.30
2024-03-14T15:42:38.052Z,99.90
2024-03-14T15:45:06.365Z,99.90
2024-03-14T15:47:33.974Z,99.90
2024-03-14T15:50:01.107Z,99.90
2024-03-14T15:52:27.766Z,99.90
2024-03-14T15:54:54.480Z,99.90
2024-03-14T15:57:22.994Z,99.90
2024-03-14T15:59:49.963Z,99.90
2024-03-14T16:02:16.653Z,99.90
2024-03-14T16:04:43.346Z,99.90
2024-03-14T16:07:10.121Z,99.90
2024-03-14T16:09:38.382Z,99.90
2024-03-14T16:12:07.605Z,99.90
2024-03-14T16:14:34.454Z,99.90
2024-03-14T16:17:01.361Z,99.90
2024-03-14T16:19:28.373Z,99.90
2024-03-14T16:21:55.043Z,99.90
2024-03-14T16:24:27.069Z,99.90
2024-03-14T16:26:54.275Z,99.90
2024-03-14T16:29:24.121Z,99.90
2024-03-14T16:31:55.674Z,99.90
2024-03-14T16:34:22.393Z,99.90
2024-03-14T16:36:49.461Z,99.90
2024-03-14T16:39:22.256Z,99.90
2024-03-14T16:41:49.062Z,99.90
2024-03-14T16:44:15.934Z,99.90
2024-03-14T16:46:44.840Z,99.90
2024-03-14T16:49:12.930Z,99.90
2024-03-14T16:51:41.726Z,99.90
2024-03-14T16:54:18.950Z,99.90
2024-03-14T16:56:47.813Z,99.90
2024-03-14T16:59:14.602Z,99.90
2024-03-14T17:01:44.065Z,99.90
2024-03-14T17:04:10.926Z,99.90
2024-03-14T17:06:37.825Z,99.90
2024-03-14T17:09:08.732Z,99.90
2024-03-14T17:11:38.705Z,99.90
2024-03-14T17:14:06.863Z,99.90
2024-03-14T17:16:33.632Z,99.90
2024-03-14T17:19:00.520Z,99.90
2024-03-14T17:21:27.374Z,99.90
2024-03-14T17:23:54.216Z,99.90
2024-03-14T17:26:20.939Z,99.90
2024-03-14T17:28:47.679Z,99.90
2024-03-14T17:31:14.840Z,99.90
2024-03-14T17:33:43.680Z,99.90
2024-03-14T17:36:14.237Z,99.90
2024-03-14T17:38:41.296Z,99.90
2024-03-14T17:41:10.359Z,99.90
2024-03-14T17:43:37.241Z,99.90
2024-03-14T17:46:04.980Z,99.90
2024-03-14T17:48:33.248Z,99.90
2024-03-14T17:51:00.296Z,99.90
2024-03-14T17:53:26.947Z,99.90
2024-03-14T17:55:53.869Z,99.90
2024-03-14T17:58:20.560Z,99.90
2024-03-14T18:00:49.190Z,99.90
2024-03-14T18:03:16.176Z,99.90
2024-03-14T18:05:43.012Z,99.90
2024-03-14T18:08:10.390Z,99.90
2024-03-14T18:10:37.795Z,99.90
2024-03-14T18:13:04.764Z,99.90
2024-03-14T18:15:31.942Z,99.90
2024-03-14T18:17:59.411Z,99.90
2024-03-14T18:20:28.027Z,99.90
2024-03-14T18:22:56.251Z,99.90
2024-03-14T18:25:23.387Z,99.90
2024-03-14T18:27:52.112Z,99.90
2024-03-14T18:30:22.129Z,99.90
2024-03-14T18:32:51.537Z,99.90
2024-03-14T18:35:21.271Z,99.90
2024-03-14T18:37:50.868Z,99.90
2024-03-14T18:40:20.321Z,99.90
2024-03-14T18:42:49.111Z,99.90
2024-03-14T18:45:17.724Z,99.90
2024-03-14T18:47:45.294Z,99.90
2024-03-14T18:50:15.148Z,99.90
2024-03-14T18:52:42.801Z,99.90
2024-03-14T18:55:12.570Z,99.90
2024-03-14T18:57:39.750Z,99.90
2024-03-14T19:00:14.744Z,99.90
2024-03-14T19:02:42.243Z,99.90
2024-03-14T19:05:09.969Z,99.90
2024-03-14T19:07:37.725Z,99.90
2024-03-14T19:10:04.746Z,99.90
2024-03-14T19:12:31.738Z,99.90
2024-03-14T19:14:58.787Z,99.90
2024-03-14T19:17:26.441Z,99.90
2024-03-14T19:19:54.172Z,99.90
2024-03-14T19:22:21.227Z,99.90
2024-03-14T19:24:48.095Z,99.90
2024-03-14T19:27:16.212Z,99.90
2024-03-14T19:29:43.308Z,99.90
2024-03-14T19:32:10.250Z,99.90
2024-03-14T19:34:36.985Z,99.90
2024-03-14T19:37:04.983Z,99.90
2024-03-14T19:39:34.238Z,99.90
2024-03-14T19:42:01.905Z,99.90
2024-03-14T19:44:29.674Z,99.90
2024-03-14T19:46:58.090Z,99.90
2024-03-14T19:49:25.404Z,99.90
2024-03-14T19:51:52.404Z,99.90
2024-03-14T19:54:19.318Z,99.90
2024-03-14T19:56:47.344Z,99.90
2024-03-14T19:59:14.141Z,99.90
2024-03-14T20:01:41.211Z,99.90
2024-03-14T20:04:09.777Z,99.90
2024-03-14T20:06:36.861Z,99.90
2024-03-14T20:09:06.057Z,99.90
2024-03-14T20:11:34.315Z,99.90
2024-03-14T20:14:01.734Z,99.90
2024-03-14T20:16:28.614Z,99.90
2024-03-14T20:18:55.411Z,99.90
2024-03-14T20:21:22.211Z,99.90
2024-03-14T20:23:50.537Z,99.90
2024-03-14T20:26:19.214Z,99.90
2024-03-14T20:28:46.087Z,99.90
2024-03-14T20:31:14.977Z,99.90
2024-03-14T20:33:41.784Z,99.90
2024-03-14T20:36:09.199Z,99.90
2024-03-14T20:38:36.122Z,99.90
2024-03-14T20:41:06.989Z,99.90
2024-03-14T20:43:40.958Z,99.90
2024-03-14T20:46:11.882Z,99.90
2024-03-14T20:48:38.944Z,99.90
2024-03-14T20:51:06.093Z,99.90
2024-03-14T20:53:32.889Z,99.90
2024-03-14T20:56:25.880Z,99.90
2024-03-14T20:58:53.361Z,99.90
2024-03-14T21:01:20.211Z,99.90
2024-03-14T21:03:47.602Z,99.90
2024-03-14T21:06:14.930Z,99.90
2024-03-14T21:08:58.465Z,99.90
2024-03-14T21:11:25.587Z,99.90
2024-03-14T21:13:53.161Z,99.90
2024-03-14T21:16:21.661Z,99.90
2024-03-14T21:18:48.960Z,99.90
2024-03-14T21:21:16.173Z,99.90
2024-03-14T21:23:44.093Z,99.90
2024-03-14T21:26:11.066Z,99.90
2024-03-14T21:28:37.831Z,99.90
2024-03-14T21:31:05.218Z,99.90
2024-03-14T21:33:34.085Z,99.90
2024-03-14T21:36:01.533Z,99.90
2024-03-14T21:38:28.810Z,99.90
2024-03-14T21:40:56.342Z,99.90
2024-03-14T21:43:23.247Z,99.90
2024-03-14T21:45:50.954Z,99.90
2024-03-14T21:48:18.907Z,99.90
2024-03-14T21:50:47.548Z,99.90
2024-03-14T21:53:17.402Z,99.90
2024-03-14T21:55:45.573Z,99.90
2024-03-14T21:58:12.594Z,99.90
2024-03-14T22:00:39.600Z,99.90
2024-03-14T22:03:06.559Z,99.90
2024-03-14T22:05:33.839Z,99.90
2024-03-14T22:08:00.828Z,99.90
2024-03-14T22:10:27.733Z,99.90
2024-03-14T22:12:55.063Z,99.90
2024-03-14T22:15:21.942Z,99.90
2024-03-14T22:17:48.903Z,99.90
2024-03-14T22:20:20.637Z,99.90
2024-03-14T22:22:48.560Z,99.90
2024-03-14T22:25:16.730Z,99.90
2024-03-14T22:27:44.186Z,99.90
2024-03-14T22:30:12.053Z,99.90
2024-03-14T22:32:39.193Z,99.90
2024-03-14T22:35:06.530Z,99.90
2024-03-14T22:37:33.464Z,99.90
2024-03-14T22:40:00.507Z,99.90
2024-03-14T22:42:27.607Z,99.90
2024-03-14T22:44:54.900Z,99.90
2024-03-14T22:47:21.665Z,99.90
2024-03-14T22:49:48.523Z,99.90
2024-03-14T22:52:15.364Z,99.90
2024-03-14T22:54:42.084Z,99.90
2024-03-14T22:57:09.496Z,99.90
2024-03-14T22:59:37.702Z,99.90
2024-03-14T23:02:04.941Z,99.90
2024-03-14T23:04:33.696Z,99.90
2024-03-14T23:07:01.646Z,99.90
2024-03-14T23:09:28.740Z,99.90
2024-03-14T23:11:56.152Z,99.90
2024-03-14T23:14:23.451Z,99.90
2024-03-14T23:16:51.984Z,99.90
2024-03-14T23:19:19.093Z,99.90
2024-03-14T23:21:46.843Z,99.90
2024-03-14T23:24:13.696Z,99.90
2024-03-14T23:26:40.482Z,99.90
2024-03-14T23:29:07.445Z,99.90
2024-03-14T23:31:34.476Z,99.90
2024-03-14T23:34:01.413Z,99.90
2024-03-14T23:36:28.361Z,99.90
2024-03-14T23:38:55.384Z,99.90
2024-03-14T23:41:22.550Z,99.90
2024-03-14T23:43:53.172Z,99.90
2024-03-14T23:46:21.558Z,99.90
2024-03-14T23:48:48.744Z,99.90
2024-03-14T23:51:15.894Z,99.90
2024-03-14T23:53:43.241Z,99.90
2024-03-14T23:56:10.353Z,99.90
2024-03-14T23:58:37.271Z,99.90
